createdAt,value
2019-02-06T00:00:53.437Z,12.55
2019-02-06T00:03:21.823Z,8.00
2019-02-06T00:05:49.697Z,7.58
2019-02-06T00:08:17.290Z,7.37
2019-02-06T00:10:44.953Z,7.62
2019-02-06T00:13:12.453Z,6.53
2019-02-06T00:15:40.043Z,7.40
2019-02-06T00:18:07.911Z,10.13
2019-02-06T00:20:35.367Z,8.13
2019-02-06T00:23:02.928Z,8.30
2019-02-06T00:25:30.378Z,6.70
2019-02-06T00:27:57.835Z,7.92
2019-02-06T00:30:25.643Z,7.03
2019-02-06T00:32:53.133Z,7.08
2019-02-06T00:35:25.830Z,6.33
2019-02-06T00:37:50.230Z,6.87
2019-02-06T00:40:17.599Z,8.20
2019-02-06T00:42:45.283Z,5.95
2019-02-06T00:45:13.319Z,6.08
2019-02-06T00:47:41.286Z,5.92
2019-02-06T00:50:10.394Z,6.10
2019-02-06T00:52:38.158Z,5.80
2019-02-06T00:55:06.015Z,6.10
2019-02-06T00:57:33.711Z,5.47
2019-02-06T01:00:01.462Z,6.12
2019-02-06T01:02:28.951Z,6.40
2019-02-06T01:04:56.571Z,6.55
2019-02-06T01:07:24.006Z,5.60
2019-02-06T01:09:52.209Z,6.08
2019-02-06T01:12:19.622Z,6.05
2019-02-06T01:14:46.994Z,5.25
2019-02-06T01:17:14.709Z,6.28
2019-02-06T01:19:42.411Z,5.45
2019-02-06T01:22:10.132Z,5.60
2019-02-06T01:24:37.660Z,5.40
2019-02-06T01:27:05.427Z,5.10
2019-02-06T01:29:32.840Z,5.25
2019-02-06T01:32:00.359Z,6.15
2019-02-06T01:34:28.383Z,5.10
2019-02-06T01:36:55.780Z,4.22
2019-02-06T01:39:23.638Z,4.62
2019-02-06T01:41:51.039Z,5.00
2019-02-06T01:44:18.756Z,5.40
2019-02-06T01:46:46.455Z,4.70
2019-02-06T01:49:13.889Z,5.47
2019-02-06T01:51:41.651Z,4.72
2019-02-06T01:54:09.091Z,4.78
2019-02-06T01:56:36.765Z,4.67
2019-02-06T01:59:04.929Z,5.00
2019-02-06T02:01:32.412Z,4.72
2019-02-06T02:03:59.836Z,4.78
2019-02-06T02:06:27.280Z,4.42
2019-02-06T02:09:00.077Z,4.72
2019-02-06T02:11:27.765Z,4.97
2019-02-06T02:13:55.156Z,4.83
2019-02-06T02:16:22.504Z,4.72
2019-02-06T02:18:50.261Z,4.28
2019-02-06T02:21:17.966Z,4.78
2019-02-06T02:23:45.499Z,4.58
2019-02-06T02:26:12.913Z,5.33
2019-02-06T02:28:40.614Z,5.25
2019-02-06T02:31:08.334Z,4.80
2019-02-06T02:33:35.770Z,4.58
2019-02-06T02:36:14.927Z,5.45
2019-02-06T02:38:32.400Z,5.40
2019-02-06T02:40:59.857Z,5.22
2019-02-06T02:43:27.210Z,4.60
2019-02-06T02:45:54.935Z,4.92
2019-02-06T02:48:22.248Z,4.35
2019-02-06T02:50:49.798Z,4.95
2019-02-06T02:53:17.307Z,5.33
2019-02-06T02:55:44.747Z,5.72
2019-02-06T02:58:12.144Z,4.80
2019-02-06T03:01:02.079Z,4.97
2019-02-06T03:03:57.910Z,4.53
2019-02-06T03:06:28.272Z,4.35
2019-02-06T03:08:54.821Z,4.50
2019-02-06T03:11:22.384Z,5.37
2019-02-06T03:13:49.803Z,4.17
2019-02-06T03:16:17.276Z,4.30
2019-02-06T03:18:44.996Z,3.67
2019-02-06T03:21:12.799Z,4.22
2019-02-06T03:23:40.595Z,4.28
2019-02-06T03:26:08.185Z,4.12
2019-02-06T03:28:35.653Z,4.53
2019-02-06T03:31:03.339Z,4.40
2019-02-06T03:33:30.773Z,5.50
2019-02-06T03:35:58.238Z,4.42
2019-02-06T03:38:25.651Z,4.50
2019-02-06T03:40:53.107Z,4.40
2019-02-06T03:43:20.749Z,4.58
2019-02-06T03:45:48.210Z,5.42
2019-02-06T03:48:15.733Z,4.53
2019-02-06T03:50:43.806Z,5.00
2019-02-06T03:53:11.469Z,4.58
2019-02-06T03:55:39.384Z,4.80
2019-02-06T03:58:06.848Z,4.92
2019-02-06T04:00:34.557Z,3.95
2019-02-06T04:03:01.981Z,4.75
2019-02-06T04:05:29.476Z,4.05
2019-02-06T04:07:56.932Z,4.20
2019-02-06T04:10:24.501Z,4.08
2019-02-06T04:12:52.114Z,4.20
2019-02-06T04:15:19.552Z,4.75
2019-02-06T04:17:47.021Z,3.55
2019-02-06T04:20:14.745Z,3.67
2019-02-06T04:22:42.550Z,4.00
2019-02-06T04:25:11.061Z,4.40
2019-02-06T04:27:38.495Z,4.55
2019-02-06T04:30:07.367Z,4.85
2019-02-06T04:32:34.889Z,5.00
2019-02-06T04:35:02.328Z,4.47
2019-02-06T04:37:29.769Z,4.90
2019-02-06T04:39:57.485Z,4.90
2019-02-06T04:42:25.357Z,5.08
2019-02-06T04:44:52.811Z,4.33
2019-02-06T04:47:20.822Z,3.98
2019-02-06T04:49:48.238Z,4.05
2019-02-06T04:52:15.774Z,3.90
2019-02-06T04:54:43.461Z,4.42
2019-02-06T04:57:10.956Z,4.78
2019-02-06T04:59:38.738Z,5.15
2019-02-06T05:02:06.440Z,4.05
2019-02-06T05:04:33.837Z,4.08
2019-02-06T05:07:01.640Z,4.20
2019-02-06T05:09:29.076Z,4.35
2019-02-06T05:11:57.204Z,3.92
2019-02-06T05:14:24.740Z,3.20
2019-02-06T05:16:52.574Z,3.17
2019-02-06T05:19:20.271Z,3.70
2019-02-06T05:21:47.903Z,3.58
2019-02-06T05:24:15.771Z,3.77
2019-02-06T05:26:43.247Z,3.65
2019-02-06T05:29:11.084Z,3.80
2019-02-06T05:31:38.604Z,4.35
2019-02-06T05:34:06.026Z,4.62
2019-02-06T05:36:33.485Z,3.92
2019-02-06T05:39:00.874Z,5.12
2019-02-06T05:41:28.306Z,3.92
2019-02-06T05:43:56.278Z,4.35
2019-02-06T05:46:23.727Z,4.33
2019-02-06T05:48:51.420Z,3.92
2019-02-06T05:51:18.875Z,4.50
2019-02-06T05:53:46.356Z,4.10
2019-02-06T05:56:14.051Z,3.77
2019-02-06T05:58:41.579Z,3.30
2019-02-06T06:01:09.415Z,3.92
2019-02-06T06:03:37.045Z,3.85
2019-02-06T06:06:04.557Z,3.67
2019-02-06T06:08:32.020Z,4.03
2019-02-06T06:10:59.458Z,3.37
2019-02-06T06:13:27.048Z,4.08
2019-02-06T06:15:54.454Z,3.83
2019-02-06T06:18:22.238Z,4.67
2019-02-06T06:20:50.042Z,3.80
2019-02-06T06:23:17.535Z,4.65
2019-02-06T06:25:44.999Z,4.12
2019-02-06T06:28:12.579Z,4.22
2019-02-06T06:30:40.119Z,4.10
2019-02-06T06:33:07.598Z,4.15
2019-02-06T06:35:35.822Z,4.55
2019-02-06T06:43:27.329Z,5.30
2019-02-06T06:45:54.930Z,5.50
2019-02-06T06:48:22.606Z,5.90
2019-02-06T06:50:50.184Z,4.87
2019-02-06T06:53:17.640Z,5.03
2019-02-06T06:55:45.386Z,6.15
2019-02-06T06:58:12.803Z,4.70
2019-02-06T07:00:40.225Z,3.95
2019-02-06T07:03:07.689Z,4.70
2019-02-06T07:05:35.175Z,4.45
2019-02-06T07:10:44.871Z,4.08
2019-02-06T07:13:12.675Z,5.08
2019-02-06T07:15:40.127Z,5.12
2019-02-06T07:18:07.573Z,4.33
2019-02-06T07:20:35.330Z,4.50
2019-02-06T07:23:03.068Z,4.30
2019-02-06T07:25:30.532Z,4.83
2019-02-06T07:27:58.065Z,4.62
2019-02-06T07:30:28.187Z,4.58
2019-02-06T07:32:55.762Z,5.00
2019-02-06T07:35:23.491Z,4.25
2019-02-06T07:37:51.284Z,4.50
2019-02-06T07:40:18.996Z,5.25
2019-02-06T07:42:46.472Z,5.20
2019-02-06T07:45:14.700Z,4.65
2019-02-06T07:47:42.150Z,5.05
2019-02-06T07:50:13.576Z,4.00
2019-02-06T07:52:41.067Z,5.35
2019-02-06T07:55:08.486Z,5.03
2019-02-06T07:57:35.923Z,5.05
2019-02-06T08:00:05.292Z,4.90
2019-02-06T08:02:32.704Z,5.55
2019-02-06T08:05:00.292Z,8.03
2019-02-06T08:07:27.724Z,6.28
2019-02-06T08:09:55.199Z,6.20
2019-02-06T08:12:22.877Z,6.40
2019-02-06T08:14:50.662Z,5.62
2019-02-06T08:17:18.076Z,5.15
2019-02-06T08:19:45.629Z,5.67
2019-02-06T08:22:13.082Z,5.75
2019-02-06T08:24:40.805Z,6.58
2019-02-06T08:27:08.559Z,6.87
2019-02-06T08:29:36.575Z,5.78
2019-02-06T08:32:04.296Z,12.07
2019-02-06T08:34:32.093Z,11.10
2019-02-06T08:36:59.522Z,7.37
2019-02-06T08:39:27.002Z,6.35
2019-02-06T08:41:54.714Z,6.62
2019-02-06T08:44:22.205Z,6.42
2019-02-06T08:46:49.651Z,6.15
2019-02-06T08:49:17.993Z,5.72
2019-02-06T08:51:45.735Z,5.22
2019-02-06T08:54:13.290Z,6.25
2019-02-06T08:56:40.760Z,6.60
2019-02-06T08:59:08.196Z,6.72
2019-02-06T09:01:35.631Z,6.58
2019-02-06T09:04:03.219Z,6.35
2019-02-06T09:06:30.941Z,5.92
2019-02-06T09:09:00.013Z,5.87
2019-02-06T09:11:27.555Z,6.30
2019-02-06T09:13:54.985Z,7.03
2019-02-06T09:16:22.664Z,6.60
2019-02-06T09:18:50.335Z,8.38
2019-02-06T09:21:18.220Z,7.83
2019-02-06T09:23:45.653Z,8.95
2019-02-06T09:26:13.052Z,9.13
2019-02-06T09:28:40.768Z,9.23
2019-02-06T09:31:08.141Z,10.55
2019-02-06T09:33:35.471Z,9.95
2019-02-06T09:36:03.255Z,9.48
2019-02-06T09:38:30.643Z,9.88
2019-02-06T09:40:58.289Z,8.53
2019-02-06T09:43:27.538Z,8.80
2019-02-06T09:45:57.153Z,9.15
2019-02-06T09:48:24.538Z,8.73
2019-02-06T09:50:52.038Z,9.15
2019-02-06T09:53:19.587Z,9.33
2019-02-06T09:55:47.186Z,9.28
2019-02-06T09:58:14.578Z,9.03
2019-02-06T10:00:42.332Z,8.83
2019-02-06T10:03:09.816Z,8.75
2019-02-06T10:05:37.406Z,9.40
2019-02-06T10:08:05.333Z,8.38
2019-02-06T10:10:33.358Z,11.08
2019-02-06T10:13:00.767Z,9.93
2019-02-06T10:15:30.516Z,9.85
2019-02-06T10:17:59.094Z,10.95
2019-02-06T10:20:29.362Z,9.65
2019-02-06T10:22:56.974Z,8.95
2019-02-06T10:25:24.689Z,8.15
2019-02-06T10:27:52.277Z,8.85
2019-02-06T10:30:34.175Z,10.88
2019-02-06T10:33:01.764Z,8.85
2019-02-06T10:35:29.471Z,8.18
2019-02-06T10:37:57.438Z,9.98
2019-02-06T10:40:25.087Z,8.93
2019-02-06T10:42:53.067Z,9.48
2019-02-06T10:45:21.245Z,10.23
2019-02-06T10:47:49.568Z,9.80
2019-02-06T10:50:19.059Z,9.95
2019-02-06T10:52:48.348Z,9.80
2019-02-06T10:55:17.056Z,9.80
2019-02-06T10:57:44.463Z,9.55
2019-02-06T11:00:39.132Z,9.80
2019-02-06T11:03:06.790Z,9.53
2019-02-06T11:05:34.598Z,10.32
2019-02-06T11:08:02.128Z,10.13
2019-02-06T11:10:29.953Z,9.23
2019-02-06T11:12:57.387Z,9.63
2019-02-06T11:15:25.557Z,9.18
2019-02-06T11:17:53.215Z,10.18
2019-02-06T11:20:20.762Z,11.15
2019-02-06T11:22:48.293Z,10.30
2019-02-06T11:25:16.011Z,9.50
2019-02-06T11:27:43.981Z,11.40
2019-02-06T11:30:14.587Z,10.43
2019-02-06T11:32:42.268Z,11.15
2019-02-06T11:35:10.578Z,10.72
2019-02-06T11:37:38.272Z,10.43
2019-02-06T11:40:08.100Z,11.18
2019-02-06T11:42:35.700Z,10.30
2019-02-06T11:45:05.195Z,12.18
2019-02-06T11:47:32.886Z,11.05
2019-02-06T11:50:01.496Z,10.28
2019-02-06T11:52:29.471Z,10.82
2019-02-06T11:54:56.955Z,11.18
2019-02-06T11:57:24.798Z,11.03
2019-02-06T11:59:53.133Z,11.90
2019-02-06T12:02:24.210Z,11.38
2019-02-06T12:04:51.912Z,12.05
2019-02-06T12:07:19.820Z,11.75
2019-02-06T12:09:47.307Z,11.78
2019-02-06T12:12:14.745Z,10.98
2019-02-06T12:14:42.460Z,10.78
2019-02-06T12:17:10.391Z,11.43
2019-02-06T12:19:37.853Z,16.05
2019-02-06T12:22:05.564Z,11.85
2019-02-06T12:24:33.294Z,18.20
2019-02-06T12:27:00.760Z,13.28
2019-02-06T12:29:28.506Z,11.25
2019-02-06T12:31:56.042Z,11.70
2019-02-06T12:34:23.500Z,11.65
2019-02-06T12:36:51.185Z,11.33
2019-02-06T12:39:18.640Z,11.25
2019-02-06T12:41:46.055Z,10.90
2019-02-06T12:44:13.492Z,10.50
2019-02-06T12:46:41.404Z,11.08
2019-02-06T12:49:09.110Z,11.63
2019-02-06T12:51:36.582Z,11.85
2019-02-06T12:54:04.223Z,10.43
2019-02-06T12:56:31.700Z,11.38
2019-02-06T12:58:59.124Z,11.12
2019-02-06T13:01:27.551Z,12.00
2019-02-06T13:03:55.430Z,11.55
2019-02-06T13:06:23.157Z,11.88
2019-02-06T13:08:50.669Z,12.03
2019-02-06T13:11:18.142Z,11.73
2019-02-06T13:13:45.893Z,10.70
2019-02-06T13:16:14.398Z,11.60
2019-02-06T13:18:41.928Z,11.00
2019-02-06T13:21:09.662Z,11.95
2019-02-06T13:23:37.279Z,12.58
2019-02-06T13:26:04.860Z,11.85
2019-02-06T13:28:32.312Z,12.82
2019-02-06T13:30:59.802Z,11.93
2019-02-06T13:33:27.419Z,11.80
2019-02-06T13:35:54.902Z,12.00
2019-02-06T13:38:23.284Z,11.83
2019-02-06T13:40:51.405Z,13.10
2019-02-06T13:43:19.126Z,12.18
2019-02-06T13:45:47.531Z,12.68
2019-02-06T13:48:14.982Z,12.60
2019-02-06T13:50:42.639Z,12.60
2019-02-06T13:53:10.131Z,11.93
2019-02-06T13:55:37.626Z,13.28
2019-02-06T13:58:05.836Z,12.68
2019-02-06T14:00:34.817Z,15.65
2019-02-06T14:03:02.315Z,14.13
2019-02-06T14:05:32.696Z,13.15
2019-02-06T14:08:02.284Z,13.22
2019-02-06T14:10:30.485Z,12.63
2019-02-06T14:12:58.598Z,13.48
2019-02-06T14:15:29.280Z,13.70
2019-02-06T14:17:56.895Z,12.82
2019-02-06T14:20:24.418Z,11.73
2019-02-06T14:23:04.213Z,12.35
2019-02-06T14:26:01.745Z,13.60
2019-02-06T14:29:12.709Z,14.00
2019-02-06T14:37:47.419Z,19.40
2019-02-06T14:41:08.567Z,19.10
2019-02-06T14:44:14.750Z,13.60
2019-02-06T14:47:10.858Z,14.78
2019-02-06T14:50:05.106Z,14.40
2019-02-06T14:53:09.864Z,13.28
2019-02-06T14:56:09.424Z,13.88
2019-02-06T14:59:06.806Z,17.35
2019-02-06T15:02:45.037Z,16.15
2019-02-06T15:05:50.949Z,23.30
2019-02-06T15:09:06.317Z,15.60
2019-02-06T15:23:32.300Z,16.17
2019-02-06T15:26:16.013Z,15.18
2019-02-06T15:29:15.168Z,15.53
2019-02-06T15:32:09.813Z,15.75
2019-02-06T15:35:28.272Z,16.23
2019-02-06T15:38:39.233Z,16.30
2019-02-06T15:41:51.220Z,16.80
2019-02-06T15:44:48.950Z,17.15
2019-02-06T15:47:41.400Z,15.90
2019-02-06T15:50:45.580Z,15.95
2019-02-06T15:54:25.650Z,15.08
2019-02-06T15:57:22.327Z,16.35
2019-02-06T16:00:26.130Z,15.53
2019-02-06T16:03:38.867Z,16.87
2019-02-06T16:06:25.323Z,13.45
2019-02-06T16:09:50.186Z,14.55
2019-02-06T16:12:34.510Z,14.85
2019-02-06T16:15:30.433Z,13.32
2019-02-06T16:18:17.765Z,13.30
2019-02-06T16:21:30.761Z,13.50
2019-02-06T16:24:44.256Z,13.20
2019-02-06T16:27:53.684Z,14.28
2019-02-06T16:31:13.847Z,13.80
2019-02-06T16:34:34.857Z,13.28
2019-02-06T16:38:06.940Z,12.15
2019-02-06T16:41:15.421Z,11.22
2019-02-06T16:44:06.311Z,11.33
2019-02-06T16:47:21.706Z,11.95
2019-02-06T16:53:04.570Z,12.23
2019-02-06T16:56:01.983Z,11.78
2019-02-06T16:59:07.327Z,11.80
2019-02-06T17:02:21.809Z,12.58
2019-02-06T17:05:30.981Z,11.35
2019-02-06T17:08:23.758Z,12.40
2019-02-06T17:11:40.611Z,12.35
2019-02-06T17:14:47.898Z,12.58
2019-02-06T17:17:52.479Z,13.15
2019-02-06T17:21:01.741Z,13.85
2019-02-06T17:24:22.707Z,13.78
2019-02-06T17:27:30.344Z,12.33
2019-02-06T17:30:49.925Z,11.95
2019-02-06T17:34:01.185Z,12.30
2019-02-06T17:37:25.112Z,13.15
2019-02-06T17:40:36.313Z,12.35
2019-02-06T17:43:36.273Z,13.15
2019-02-06T17:46:29.175Z,11.97
2019-02-06T17:49:10.776Z,14.20
2019-02-06T17:52:11.505Z,13.62
2019-02-06T17:55:21.733Z,13.78
2019-02-06T17:57:54.644Z,13.62
2019-02-06T18:00:31.586Z,13.22
2019-02-06T18:03:07.509Z,14.13
2019-02-06T18:05:40.348Z,13.20
2019-02-06T18:08:11.996Z,13.90
2019-02-06T18:10:43.717Z,13.68
2019-02-06T18:13:14.228Z,15.23
2019-02-06T18:15:44.714Z,15.00
2019-02-06T18:18:15.921Z,15.28
2019-02-06T18:20:46.644Z,12.68
2019-02-06T18:23:19.095Z,13.35
2019-02-06T18:25:50.148Z,14.65
2019-02-06T18:28:20.732Z,15.00
2019-02-06T18:30:50.713Z,17.30
2019-02-06T18:38:59.755Z,15.10
2019-02-06T18:41:31.917Z,15.15
2019-02-06T18:44:07.013Z,15.68
2019-02-06T18:46:37.671Z,16.73
2019-02-06T18:49:09.362Z,15.90
2019-02-06T18:51:40.145Z,15.70
2019-02-06T18:54:12.877Z,15.90
2019-02-06T18:56:44.100Z,15.28
2019-02-06T18:59:15.137Z,14.43
2019-02-06T19:01:49.236Z,14.98
2019-02-06T19:04:21.733Z,14.38
2019-02-06T19:06:52.259Z,14.68
2019-02-06T19:09:29.577Z,15.78
2019-02-06T19:12:02.486Z,15.55
2019-02-06T19:18:04.748Z,15.03
2019-02-06T19:20:35.837Z,14.73
2019-02-06T19:23:08.052Z,13.03
2019-02-06T19:25:38.783Z,14.05
2019-02-06T19:28:11.057Z,15.75
2019-02-06T19:30:44.367Z,13.85
2019-02-06T19:33:19.566Z,14.05
2019-02-06T19:35:52.338Z,14.25
2019-02-06T19:38:23.974Z,14.45
2019-02-06T19:40:56.530Z,16.10
2019-02-06T19:43:28.476Z,17.32
2019-02-06T19:45:59.911Z,16.52
2019-02-06T19:48:34.321Z,20.12
2019-02-06T19:51:08.673Z,32.45
2019-02-06T19:53:40.272Z,26.35
2019-02-06T19:56:11.266Z,17.85
2019-02-06T19:58:41.792Z,17.80
2019-02-06T20:01:12.766Z,14.60
2019-02-06T20:03:49.667Z,13.83
2019-02-06T20:06:29.576Z,13.45
2019-02-06T20:09:08.330Z,15.25
2019-02-06T20:14:14.723Z,13.32
2019-02-06T20:16:45.473Z,13.85
2019-02-06T20:25:58.905Z,22.00
2019-02-06T20:28:26.694Z,17.92
2019-02-06T20:30:54.515Z,15.15
2019-02-06T20:33:23.075Z,13.08
2019-02-06T20:35:50.513Z,13.62
2019-02-06T20:38:18.324Z,14.33
2019-02-06T20:40:46.129Z,14.75
2019-02-06T20:43:21.866Z,14.07
2019-02-06T20:45:43.310Z,12.13
2019-02-06T20:48:10.766Z,13.65
2019-02-06T20:50:38.936Z,14.10
2019-02-06T20:53:06.686Z,13.22
2019-02-06T20:55:34.346Z,12.98
2019-02-06T20:58:02.047Z,12.98
2019-02-06T21:00:34.932Z,13.65
2019-02-06T21:03:03.493Z,12.85
2019-02-06T21:05:30.956Z,12.68
2019-02-06T21:07:59.313Z,12.78
2019-02-06T21:10:28.359Z,13.32
2019-02-06T21:12:55.867Z,13.48
2019-02-06T21:15:23.418Z,11.85
2019-02-06T21:17:51.465Z,13.48
2019-02-06T21:20:19.545Z,13.08
2019-02-06T21:22:47.048Z,12.10
2019-02-06T21:25:16.167Z,11.55
2019-02-06T21:27:43.734Z,13.48
2019-02-06T21:30:14.489Z,12.70
2019-02-06T21:32:42.426Z,12.90
2019-02-06T21:35:10.377Z,14.00
2019-02-06T21:37:37.857Z,12.68
2019-02-06T21:40:09.207Z,12.82
2019-02-06T21:42:36.904Z,12.25
2019-02-06T21:45:05.457Z,13.72
2019-02-06T21:47:32.939Z,11.85
2019-02-06T21:50:00.929Z,11.73
2019-02-06T21:52:28.453Z,12.40
2019-02-06T21:54:56.150Z,12.70
2019-02-06T21:57:24.536Z,12.15
2019-02-06T21:59:52.580Z,13.32
2019-02-06T22:02:19.990Z,12.88
2019-02-06T22:04:47.985Z,11.08
2019-02-06T22:07:15.473Z,11.97
2019-02-06T22:09:42.845Z,12.73
2019-02-06T22:12:10.963Z,14.15
2019-02-06T22:14:38.721Z,13.60
2019-02-06T22:17:06.186Z,13.28
2019-02-06T22:19:33.703Z,19.95
2019-02-06T22:22:01.213Z,14.43
2019-02-06T22:24:28.888Z,13.25
2019-02-06T22:26:56.748Z,12.98
2019-02-06T22:29:24.739Z,13.45
2019-02-06T22:31:53.064Z,13.90
2019-02-06T22:34:20.492Z,13.62
2019-02-06T22:36:48.399Z,11.28
2019-02-06T22:39:16.080Z,11.38
2019-02-06T22:41:43.927Z,12.55
2019-02-06T22:44:11.390Z,13.20
2019-02-06T22:46:39.233Z,11.93
2019-02-06T22:49:07.401Z,12.45
2019-02-06T22:51:35.087Z,11.48
2019-02-06T22:54:02.505Z,11.78
2019-02-06T22:56:30.061Z,11.93
2019-02-06T22:58:57.496Z,13.20
2019-02-06T23:01:29.810Z,12.30
2019-02-06T23:03:57.310Z,12.05
2019-02-06T23:06:25.169Z,12.23
2019-02-06T23:08:53.156Z,13.20
2019-02-06T23:11:20.690Z,12.03
2019-02-06T23:13:48.172Z,11.68
2019-02-06T23:16:15.665Z,12.70
2019-02-06T23:18:43.371Z,11.63
2019-02-06T23:21:10.826Z,12.58
2019-02-06T23:23:38.790Z,12.07
2019-02-06T23:26:06.203Z,12.10
2019-02-06T23:28:33.665Z,11.48
2019-02-06T23:31:01.129Z,12.05
2019-02-06T23:33:28.542Z,11.63
2019-02-06T23:35:56.279Z,11.68
2019-02-06T23:38:24.138Z,12.50
2019-02-06T23:40:51.620Z,12.15
2019-02-06T23:43:19.200Z,13.70
2019-02-06T23:45:46.666Z,10.65
2019-02-06T23:48:14.198Z,11.60
2019-02-06T23:50:41.787Z,12.03
2019-02-06T23:53:09.251Z,11.95
2019-02-06T23:55:36.694Z,11.73
2019-02-06T23:58:04.834Z,11.28
